sensor_id;sensor_type;location;lat;lon;timestamp;P1;durP1;ratioP1;P2;durP2;ratioP2
7957;SDS011;4024;52.172;5.378;2022-12-20T00:00:11;5.10;;;4.10;;
7957;SDS011;4024;52.172;5.378;2022-12-20T00:02:37;6.60;;;3.77;;
7957;SDS011;4024;52.172;5.378;2022-12-20T00:05:03;7.90;;;5.83;;
7957;SDS011;4024;52.172;5.378;2022-12-20T00:07:29;4.03;;;3.63;;
7957;SDS011;4024;52.172;5.378;2022-12-20T00:09:55;4.97;;;3.70;;
7957;SDS011;4024;52.172;5.378;2022-12-20T00:12:20;6.87;;;4.10;;
7957;SDS011;4024;52.172;5.378;2022-12-20T00:14:46;6.47;;;3.97;;
7957;SDS011;4024;52.172;5.378;2022-12-20T00:17:11;7.27;;;4.03;;
7957;SDS011;4024;52.172;5.378;2022-12-20T00:19:37;4.37;;;3.90;;
7957;SDS011;4024;52.172;5.378;2022-12-20T00:22:03;6.37;;;3.53;;
7957;SDS011;4024;52.172;5.378;2022-12-20T00:24:28;5.27;;;4.00;;
7957;SDS011;4024;52.172;5.378;2022-12-20T00:26:54;5.53;;;3.90;;
7957;SDS011;4024;52.172;5.378;2022-12-20T00:29:19;5.97;;;3.63;;
7957;SDS011;4024;52.172;5.378;2022-12-20T00:31:45;4.93;;;3.77;;
7957;SDS011;4024;52.172;5.378;2022-12-20T00:34:11;4.03;;;3.57;;
7957;SDS011;4024;52.172;5.378;2022-12-20T00:36:38;7.80;;;3.70;;
7957;SDS011;4024;52.172;5.378;2022-12-20T00:39:04;7.30;;;3.83;;
7957;SDS011;4024;52.172;5.378;2022-12-20T00:41:30;5.33;;;3.50;;
7957;SDS011;4024;52.172;5.378;2022-12-20T00:43:57;3.90;;;3.47;;
7957;SDS011;4024;52.172;5.378;2022-12-20T00:46:23;4.93;;;3.60;;
7957;SDS011;4024;52.172;5.378;2022-12-20T00:48:49;5.63;;;3.80;;
7957;SDS011;4024;52.172;5.378;2022-12-20T00:51:17;3.80;;;3.40;;
7957;SDS011;4024;52.172;5.378;2022-12-20T00:53:44;6.10;;;3.40;;
7957;SDS011;4024;52.172;5.378;2022-12-20T00:56:10;4.13;;;3.40;;
7957;SDS011;4024;52.172;5.378;2022-12-20T00:58:38;5.03;;;3.97;;
7957;SDS011;4024;52.172;5.378;2022-12-20T01:01:06;4.23;;;3.43;;
7957;SDS011;4024;52.172;5.378;2022-12-20T01:03:49;5.10;;;3.43;;
7957;SDS011;4024;52.172;5.378;2022-12-20T01:06:15;5.83;;;3.47;;
7957;SDS011;4024;52.172;5.378;2022-12-20T01:08:41;4.93;;;3.60;;
7957;SDS011;4024;52.172;5.378;2022-12-20T01:11:09;5.67;;;4.00;;
7957;SDS011;4024;52.172;5.378;2022-12-20T01:13:38;4.47;;;3.77;;
7957;SDS011;4024;52.172;5.378;2022-12-20T01:16:06;5.60;;;3.37;;
7957;SDS011;4024;52.172;5.378;2022-12-20T01:18:33;7.03;;;3.97;;
7957;SDS011;4024;52.172;5.378;2022-12-20T01:20:59;5.80;;;3.90;;
7957;SDS011;4024;52.172;5.378;2022-12-20T01:23:29;6.13;;;3.40;;
7957;SDS011;4024;52.172;5.378;2022-12-20T01:25:59;4.97;;;3.80;;
7957;SDS011;4024;52.172;5.378;2022-12-20T01:28:26;5.40;;;3.30;;
7957;SDS011;4024;52.172;5.378;2022-12-20T01:30:52;4.10;;;3.73;;
7957;SDS011;4024;52.172;5.378;2022-12-20T01:33:18;4.20;;;3.80;;
7957;SDS011;4024;52.172;5.378;2022-12-20T01:35:54;5.10;;;3.63;;
7957;SDS011;4024;52.172;5.378;2022-12-20T01:38:23;6.60;;;3.87;;
7957;SDS011;4024;52.172;5.378;2022-12-20T01:40:49;5.33;;;4.03;;
7957;SDS011;4024;52.172;5.378;2022-12-20T01:43:16;4.10;;;3.70;;
7957;SDS011;4024;52.172;5.378;2022-12-20T01:45:43;4.40;;;3.27;;
7957;SDS011;4024;52.172;5.378;2022-12-20T01:48:09;5.20;;;4.10;;
7957;SDS011;4024;52.172;5.378;2022-12-20T01:50:36;8.43;;;4.27;;
7957;SDS011;4024;52.172;5.378;2022-12-20T01:53:02;5.63;;;4.03;;
7957;SDS011;4024;52.172;5.378;2022-12-20T01:55:29;5.20;;;4.03;;
7957;SDS011;4024;52.172;5.378;2022-12-20T01:58:07;4.60;;;4.10;;
7957;SDS011;4024;52.172;5.378;2022-12-20T02:00:36;5.23;;;3.97;;
7957;SDS011;4024;52.172;5.378;2022-12-20T02:03:03;4.50;;;4.10;;
7957;SDS011;4024;52.172;5.378;2022-12-20T02:05:35;4.80;;;4.00;;
7957;SDS011;4024;52.172;5.378;2022-12-20T02:08:03;5.10;;;4.00;;
7957;SDS011;4024;52.172;5.378;2022-12-20T02:13:23;5.90;;;4.60;;
7957;SDS011;4024;52.172;5.378;2022-12-20T02:16:05;4.50;;;4.10;;
7957;SDS011;4024;52.172;5.378;2022-12-20T02:21:42;5.33;;;4.00;;
7957;SDS011;4024;52.172;5.378;2022-12-20T02:27:01;5.70;;;4.43;;
7957;SDS011;4024;52.172;5.378;2022-12-20T02:35:18;4.60;;;4.13;;
7957;SDS011;4024;52.172;5.378;2022-12-20T02:37:50;6.77;;;4.00;;
7957;SDS011;4024;52.172;5.378;2022-12-20T02:40:25;7.73;;;4.37;;
7957;SDS011;4024;52.172;5.378;2022-12-20T02:42:56;4.47;;;4.07;;
7957;SDS011;4024;52.172;5.378;2022-12-20T02:45:25;6.13;;;4.33;;
7957;SDS011;4024;52.172;5.378;2022-12-20T02:48:02;7.53;;;4.70;;
7957;SDS011;4024;52.172;5.378;2022-12-20T02:53:02;5.27;;;3.80;;
7957;SDS011;4024;52.172;5.378;2022-12-20T02:55:36;5.57;;;3.83;;
7957;SDS011;4024;52.172;5.378;2022-12-20T02:58:14;4.83;;;4.00;;
7957;SDS011;4024;52.172;5.378;2022-12-20T03:00:46;5.93;;;4.07;;
7957;SDS011;4024;52.172;5.378;2022-12-20T03:03:15;4.73;;;4.10;;
7957;SDS011;4024;52.172;5.378;2022-12-20T03:05:47;5.33;;;3.90;;
7957;SDS011;4024;52.172;5.378;2022-12-20T03:08:17;5.60;;;4.40;;
7957;SDS011;4024;52.172;5.378;2022-12-20T03:10:43;4.73;;;4.20;;
7957;SDS011;4024;52.172;5.378;2022-12-20T03:13:08;4.40;;;3.80;;
7957;SDS011;4024;52.172;5.378;2022-12-20T03:15:35;4.37;;;3.70;;
7957;SDS011;4024;52.172;5.378;2022-12-20T03:18:00;5.07;;;4.23;;
7957;SDS011;4024;52.172;5.378;2022-12-20T03:20:27;4.80;;;4.20;;
7957;SDS011;4024;52.172;5.378;2022-12-20T03:22:52;4.67;;;3.80;;
7957;SDS011;4024;52.172;5.378;2022-12-20T03:25:18;6.07;;;4.33;;
7957;SDS011;4024;52.172;5.378;2022-12-20T03:27:44;7.63;;;4.70;;
7957;SDS011;4024;52.172;5.378;2022-12-20T03:30:10;6.13;;;3.87;;
7957;SDS011;4024;52.172;5.378;2022-12-20T03:32:36;5.80;;;4.03;;
7957;SDS011;4024;52.172;5.378;2022-12-20T03:35:02;5.30;;;4.20;;
7957;SDS011;4024;52.172;5.378;2022-12-20T03:37:28;5.13;;;3.60;;
7957;SDS011;4024;52.172;5.378;2022-12-20T03:39:53;3.67;;;3.37;;
7957;SDS011;4024;52.172;5.378;2022-12-20T03:42:19;6.30;;;3.80;;
7957;SDS011;4024;52.172;5.378;2022-12-20T03:44:45;6.13;;;4.17;;
7957;SDS011;4024;52.172;5.378;2022-12-20T03:47:11;5.70;;;4.00;;
7957;SDS011;4024;52.172;5.378;2022-12-20T03:49:37;4.77;;;3.67;;
7957;SDS011;4024;52.172;5.378;2022-12-20T03:52:02;5.07;;;3.87;;
7957;SDS011;4024;52.172;5.378;2022-12-20T03:54:28;5.17;;;3.77;;
7957;SDS011;4024;52.172;5.378;2022-12-20T03:56:55;5.67;;;3.73;;
7957;SDS011;4024;52.172;5.378;2022-12-20T03:59:20;4.07;;;3.60;;
7957;SDS011;4024;52.172;5.378;2022-12-20T04:01:46;4.43;;;3.87;;
7957;SDS011;4024;52.172;5.378;2022-12-20T04:04:12;6.67;;;3.80;;
7957;SDS011;4024;52.172;5.378;2022-12-20T04:06:39;5.57;;;4.03;;
7957;SDS011;4024;52.172;5.378;2022-12-20T04:09:05;3.53;;;3.23;;
7957;SDS011;4024;52.172;5.378;2022-12-20T04:11:31;3.80;;;3.47;;
7957;SDS011;4024;52.172;5.378;2022-12-20T04:13:56;4.27;;;3.67;;
7957;SDS011;4024;52.172;5.378;2022-12-20T04:16:23;4.13;;;3.73;;
7957;SDS011;4024;52.172;5.378;2022-12-20T04:18:51;5.63;;;4.40;;
7957;SDS011;4024;52.172;5.378;2022-12-20T04:21:23;5.63;;;3.80;;
7957;SDS011;4024;52.172;5.378;2022-12-20T04:23:53;4.67;;;4.07;;
7957;SDS011;4024;52.172;5.378;2022-12-20T04:26:19;4.63;;;3.83;;
7957;SDS011;4024;52.172;5.378;2022-12-20T04:28:45;5.13;;;4.03;;
7957;SDS011;4024;52.172;5.378;2022-12-20T04:31:11;5.30;;;3.50;;
7957;SDS011;4024;52.172;5.378;2022-12-20T04:33:37;4.97;;;4.00;;
7957;SDS011;4024;52.172;5.378;2022-12-20T04:36:02;4.43;;;3.97;;
7957;SDS011;4024;52.172;5.378;2022-12-20T04:38:28;5.10;;;3.70;;
7957;SDS011;4024;52.172;5.378;2022-12-20T04:40:54;4.10;;;3.70;;
7957;SDS011;4024;52.172;5.378;2022-12-20T04:43:20;4.37;;;3.83;;
7957;SDS011;4024;52.172;5.378;2022-12-20T04:45:47;5.43;;;3.50;;
7957;SDS011;4024;52.172;5.378;2022-12-20T04:48:14;4.23;;;3.73;;
7957;SDS011;4024;52.172;5.378;2022-12-20T04:50:41;7.90;;;4.37;;
7957;SDS011;4024;52.172;5.378;2022-12-20T04:53:08;5.47;;;3.77;;
7957;SDS011;4024;52.172;5.378;2022-12-20T04:55:56;4.70;;;3.60;;
7957;SDS011;4024;52.172;5.378;2022-12-20T04:58:22;6.63;;;3.70;;
7957;SDS011;4024;52.172;5.378;2022-12-20T05:00:47;6.40;;;3.87;;
7957;SDS011;4024;52.172;5.378;2022-12-20T05:03:13;4.37;;;3.97;;
7957;SDS011;4024;52.172;5.378;2022-12-20T05:05:39;4.40;;;4.00;;
7957;SDS011;4024;52.172;5.378;2022-12-20T05:08:04;6.07;;;4.20;;
7957;SDS011;4024;52.172;5.378;2022-12-20T05:10:30;4.33;;;3.90;;
7957;SDS011;4024;52.172;5.378;2022-12-20T05:12:56;4.80;;;4.00;;
7957;SDS011;4024;52.172;5.378;2022-12-20T05:15:22;6.80;;;4.20;;
7957;SDS011;4024;52.172;5.378;2022-12-20T05:17:47;5.03;;;4.23;;
7957;SDS011;4024;52.172;5.378;2022-12-20T05:20:13;6.87;;;4.53;;
7957;SDS011;4024;52.172;5.378;2022-12-20T05:22:38;7.77;;;4.17;;
7957;SDS011;4024;52.172;5.378;2022-12-20T05:25:23;4.87;;;4.23;;
7957;SDS011;4024;52.172;5.378;2022-12-20T05:28:07;4.43;;;4.03;;
7957;SDS011;4024;52.172;5.378;2022-12-20T05:30:32;6.13;;;4.07;;
7957;SDS011;4024;52.172;5.378;2022-12-20T05:32:58;6.67;;;4.77;;
7957;SDS011;4024;52.172;5.378;2022-12-20T05:35:24;4.80;;;4.30;;
7957;SDS011;4024;52.172;5.378;2022-12-20T05:37:49;5.30;;;4.07;;
7957;SDS011;4024;52.172;5.378;2022-12-20T05:40:15;5.33;;;4.40;;
7957;SDS011;4024;52.172;5.378;2022-12-20T05:42:41;4.97;;;4.20;;
7957;SDS011;4024;52.172;5.378;2022-12-20T05:45:07;5.27;;;4.30;;
7957;SDS011;4024;52.172;5.378;2022-12-20T05:47:33;4.80;;;4.30;;
7957;SDS011;4024;52.172;5.378;2022-12-20T05:49:59;4.73;;;4.23;;
7957;SDS011;4024;52.172;5.378;2022-12-20T05:52:25;6.63;;;4.17;;
7957;SDS011;4024;52.172;5.378;2022-12-20T05:54:50;5.47;;;4.17;;
7957;SDS011;4024;52.172;5.378;2022-12-20T05:57:16;4.40;;;4.00;;
7957;SDS011;4024;52.172;5.378;2022-12-20T05:59:42;6.43;;;4.60;;
7957;SDS011;4024;52.172;5.378;2022-12-20T06:02:08;5.13;;;4.20;;
7957;SDS011;4024;52.172;5.378;2022-12-20T06:04:37;6.33;;;4.40;;
7957;SDS011;4024;52.172;5.378;2022-12-20T06:07:03;6.07;;;4.13;;
7957;SDS011;4024;52.172;5.378;2022-12-20T06:09:30;7.03;;;4.43;;
7957;SDS011;4024;52.172;5.378;2022-12-20T06:11:56;6.40;;;4.13;;
7957;SDS011;4024;52.172;5.378;2022-12-20T06:14:22;5.37;;;3.83;;
7957;SDS011;4024;52.172;5.378;2022-12-20T06:16:48;4.43;;;4.00;;
7957;SDS011;4024;52.172;5.378;2022-12-20T06:19:13;5.53;;;3.50;;
7957;SDS011;4024;52.172;5.378;2022-12-20T06:21:39;7.60;;;3.93;;
7957;SDS011;4024;52.172;5.378;2022-12-20T06:24:05;5.13;;;3.77;;
7957;SDS011;4024;52.172;5.378;2022-12-20T06:26:31;5.20;;;3.63;;
7957;SDS011;4024;52.172;5.378;2022-12-20T06:29:00;4.20;;;3.57;;
7957;SDS011;4024;52.172;5.378;2022-12-20T06:31:27;4.93;;;3.33;;
7957;SDS011;4024;52.172;5.378;2022-12-20T06:33:53;5.17;;;3.60;;
7957;SDS011;4024;52.172;5.378;2022-12-20T06:36:18;6.17;;;3.50;;
7957;SDS011;4024;52.172;5.378;2022-12-20T06:38:44;4.10;;;3.27;;
7957;SDS011;4024;52.172;5.378;2022-12-20T06:41:09;3.70;;;3.40;;
7957;SDS011;4024;52.172;5.378;2022-12-20T06:43:35;5.60;;;3.97;;
7957;SDS011;4024;52.172;5.378;2022-12-20T06:46:01;5.33;;;3.50;;
7957;SDS011;4024;52.172;5.378;2022-12-20T06:48:26;5.77;;;3.80;;
7957;SDS011;4024;52.172;5.378;2022-12-20T06:50:52;4.60;;;3.30;;
7957;SDS011;4024;52.172;5.378;2022-12-20T06:53:17;4.30;;;3.43;;
7957;SDS011;4024;52.172;5.378;2022-12-20T06:55:46;7.30;;;3.20;;
7957;SDS011;4024;52.172;5.378;2022-12-20T06:58:14;3.83;;;3.13;;
7957;SDS011;4024;52.172;5.378;2022-12-20T07:00:40;4.57;;;3.27;;
7957;SDS011;4024;52.172;5.378;2022-12-20T07:03:06;4.60;;;3.40;;
7957;SDS011;4024;52.172;5.378;2022-12-20T07:05:31;4.03;;;3.00;;
7957;SDS011;4024;52.172;5.378;2022-12-20T07:07:57;3.93;;;3.20;;
7957;SDS011;4024;52.172;5.378;2022-12-20T07:10:23;4.40;;;3.33;;
7957;SDS011;4024;52.172;5.378;2022-12-20T07:12:48;5.10;;;3.37;;
7957;SDS011;4024;52.172;5.378;2022-12-20T07:15:14;4.93;;;3.00;;
7957;SDS011;4024;52.172;5.378;2022-12-20T07:17:40;4.60;;;3.30;;
7957;SDS011;4024;52.172;5.378;2022-12-20T07:20:06;5.63;;;3.00;;
7957;SDS011;4024;52.172;5.378;2022-12-20T07:22:32;4.73;;;3.67;;
7957;SDS011;4024;52.172;5.378;2022-12-20T07:24:58;4.80;;;3.37;;
7957;SDS011;4024;52.172;5.378;2022-12-20T07:27:24;5.07;;;3.53;;
7957;SDS011;4024;52.172;5.378;2022-12-20T07:29:50;4.23;;;2.80;;
7957;SDS011;4024;52.172;5.378;2022-12-20T07:32:15;4.43;;;3.13;;
7957;SDS011;4024;52.172;5.378;2022-12-20T07:34:41;5.07;;;3.03;;
7957;SDS011;4024;52.172;5.378;2022-12-20T07:37:07;7.33;;;3.70;;
7957;SDS011;4024;52.172;5.378;2022-12-20T07:39:33;3.27;;;2.97;;
7957;SDS011;4024;52.172;5.378;2022-12-20T07:41:58;5.10;;;3.40;;
7957;SDS011;4024;52.172;5.378;2022-12-20T07:44:24;4.93;;;3.13;;
7957;SDS011;4024;52.172;5.378;2022-12-20T07:46:49;4.50;;;3.30;;
7957;SDS011;4024;52.172;5.378;2022-12-20T07:49:15;4.90;;;3.27;;
7957;SDS011;4024;52.172;5.378;2022-12-20T07:51:42;3.47;;;2.90;;
7957;SDS011;4024;52.172;5.378;2022-12-20T07:54:21;5.03;;;3.23;;
7957;SDS011;4024;52.172;5.378;2022-12-20T07:56:57;4.37;;;3.47;;
7957;SDS011;4024;52.172;5.378;2022-12-20T07:59:28;5.20;;;3.10;;
7957;SDS011;4024;52.172;5.378;2022-12-20T08:02:00;8.10;;;3.30;;
7957;SDS011;4024;52.172;5.378;2022-12-20T08:04:26;5.90;;;3.27;;
7957;SDS011;4024;52.172;5.378;2022-12-20T08:06:54;3.40;;;3.10;;
7957;SDS011;4024;52.172;5.378;2022-12-20T08:09:22;4.13;;;3.00;;
7957;SDS011;4024;52.172;5.378;2022-12-20T08:11:50;4.37;;;3.10;;
7957;SDS011;4024;52.172;5.378;2022-12-20T08:14:17;4.70;;;3.60;;
7957;SDS011;4024;52.172;5.378;2022-12-20T08:16:44;4.87;;;3.40;;
7957;SDS011;4024;52.172;5.378;2022-12-20T08:19:10;4.13;;;3.30;;
7957;SDS011;4024;52.172;5.378;2022-12-20T08:21:36;3.73;;;3.10;;
7957;SDS011;4024;52.172;5.378;2022-12-20T08:24:02;4.83;;;2.97;;
7957;SDS011;4024;52.172;5.378;2022-12-20T08:26:28;6.43;;;3.30;;
7957;SDS011;4024;52.172;5.378;2022-12-20T08:28:54;4.47;;;3.00;;
7957;SDS011;4024;52.172;5.378;2022-12-20T08:31:20;4.67;;;3.23;;
7957;SDS011;4024;52.172;5.378;2022-12-20T08:33:45;5.77;;;3.60;;
7957;SDS011;4024;52.172;5.378;2022-12-20T08:36:11;3.23;;;2.90;;
7957;SDS011;4024;52.172;5.378;2022-12-20T08:38:38;4.20;;;3.30;;
7957;SDS011;4024;52.172;5.378;2022-12-20T08:41:05;6.17;;;3.87;;
7957;SDS011;4024;52.172;5.378;2022-12-20T08:43:34;4.33;;;3.40;;
7957;SDS011;4024;52.172;5.378;2022-12-20T08:46:00;3.63;;;3.07;;
7957;SDS011;4024;52.172;5.378;2022-12-20T08:48:26;3.73;;;3.07;;
7957;SDS011;4024;52.172;5.378;2022-12-20T08:50:53;3.03;;;2.67;;
7957;SDS011;4024;52.172;5.378;2022-12-20T08:53:23;4.57;;;3.03;;
7957;SDS011;4024;52.172;5.378;2022-12-20T08:55:49;6.13;;;3.40;;
7957;SDS011;4024;52.172;5.378;2022-12-20T08:58:15;3.43;;;3.07;;
7957;SDS011;4024;52.172;5.378;2022-12-20T09:00:40;4.93;;;3.00;;
7957;SDS011;4024;52.172;5.378;2022-12-20T09:03:06;6.07;;;3.40;;
7957;SDS011;4024;52.172;5.378;2022-12-20T09:05:33;5.87;;;3.30;;
7957;SDS011;4024;52.172;5.378;2022-12-20T09:07:59;5.60;;;3.57;;
7957;SDS011;4024;52.172;5.378;2022-12-20T09:10:25;6.10;;;3.33;;
7957;SDS011;4024;52.172;5.378;2022-12-20T09:12:50;6.60;;;3.10;;
7957;SDS011;4024;52.172;5.378;2022-12-20T09:15:16;4.53;;;3.43;;
7957;SDS011;4024;52.172;5.378;2022-12-20T09:17:41;3.93;;;3.30;;
7957;SDS011;4024;52.172;5.378;2022-12-20T09:20:07;5.10;;;3.47;;
7957;SDS011;4024;52.172;5.378;2022-12-20T09:22:33;5.30;;;3.30;;
7957;SDS011;4024;52.172;5.378;2022-12-20T09:24:58;5.13;;;3.20;;
7957;SDS011;4024;52.172;5.378;2022-12-20T09:27:24;3.83;;;3.10;;
7957;SDS011;4024;52.172;5.378;2022-12-20T09:29:49;8.57;;;3.10;;
7957;SDS011;4024;52.172;5.378;2022-12-20T09:32:15;5.17;;;3.30;;
7957;SDS011;4024;52.172;5.378;2022-12-20T09:34:41;6.87;;;3.73;;
7957;SDS011;4024;52.172;5.378;2022-12-20T09:37:06;6.67;;;3.40;;
7957;SDS011;4024;52.172;5.378;2022-12-20T09:39:32;7.53;;;3.60;;
7957;SDS011;4024;52.172;5.378;2022-12-20T09:41:58;5.23;;;3.47;;
7957;SDS011;4024;52.172;5.378;2022-12-20T09:44:34;9.20;;;3.87;;
7957;SDS011;4024;52.172;5.378;2022-12-20T09:47:11;5.17;;;3.57;;
7957;SDS011;4024;52.172;5.378;2022-12-20T09:49:42;7.47;;;4.50;;
7957;SDS011;4024;52.172;5.378;2022-12-20T09:52:13;7.30;;;4.10;;
7957;SDS011;4024;52.172;5.378;2022-12-20T09:55:16;7.70;;;4.67;;
7957;SDS011;4024;52.172;5.378;2022-12-20T09:57:52;7.97;;;4.10;;
7957;SDS011;4024;52.172;5.378;2022-12-20T10:00:22;5.03;;;3.70;;
7957;SDS011;4024;52.172;5.378;2022-12-20T10:02:47;5.80;;;3.50;;
7957;SDS011;4024;52.172;5.378;2022-12-20T10:05:19;5.83;;;3.77;;
7957;SDS011;4024;52.172;5.378;2022-12-20T10:10:37;8.20;;;3.70;;
7957;SDS011;4024;52.172;5.378;2022-12-20T10:16:34;4.13;;;3.70;;
7957;SDS011;4024;52.172;5.378;2022-12-20T10:24:54;5.47;;;4.10;;
7957;SDS011;4024;52.172;5.378;2022-12-20T10:27:25;5.87;;;4.13;;
7957;SDS011;4024;52.172;5.378;2022-12-20T10:29:51;4.97;;;3.73;;
7957;SDS011;4024;52.172;5.378;2022-12-20T10:32:21;6.23;;;4.20;;
7957;SDS011;4024;52.172;5.378;2022-12-20T10:34:50;6.00;;;3.93;;
7957;SDS011;4024;52.172;5.378;2022-12-20T10:37:20;4.43;;;3.70;;
7957;SDS011;4024;52.172;5.378;2022-12-20T10:39:46;6.90;;;3.97;;
7957;SDS011;4024;52.172;5.378;2022-12-20T10:42:24;4.97;;;3.77;;
7957;SDS011;4024;52.172;5.378;2022-12-20T10:44:59;5.97;;;4.70;;
7957;SDS011;4024;52.172;5.378;2022-12-20T10:47:39;6.33;;;4.00;;
7957;SDS011;4024;52.172;5.378;2022-12-20T10:50:08;5.63;;;3.80;;
7957;SDS011;4024;52.172;5.378;2022-12-20T10:52:39;6.73;;;4.23;;
7957;SDS011;4024;52.172;5.378;2022-12-20T10:55:51;5.93;;;3.60;;
7957;SDS011;4024;52.172;5.378;2022-12-20T11:00:39;4.33;;;3.87;;
7957;SDS011;4024;52.172;5.378;2022-12-20T11:05:39;6.23;;;4.10;;
7957;SDS011;4024;52.172;5.378;2022-12-20T11:08:16;4.40;;;4.00;;
7957;SDS011;4024;52.172;5.378;2022-12-20T11:10:42;7.70;;;4.37;;
7957;SDS011;4024;52.172;5.378;2022-12-20T11:13:22;6.53;;;4.10;;
7957;SDS011;4024;52.172;5.378;2022-12-20T11:15:50;6.50;;;3.97;;
7957;SDS011;4024;52.172;5.378;2022-12-20T11:18:34;4.60;;;4.07;;
7957;SDS011;4024;52.172;5.378;2022-12-20T11:21:11;8.30;;;4.20;;
7957;SDS011;4024;52.172;5.378;2022-12-20T11:23:49;5.63;;;4.13;;
7957;SDS011;4024;52.172;5.378;2022-12-20T11:36:57;5.93;;;4.33;;
7957;SDS011;4024;52.172;5.378;2022-12-20T11:39:33;5.03;;;4.00;;
7957;SDS011;4024;52.172;5.378;2022-12-20T11:42:29;5.43;;;4.40;;
7957;SDS011;4024;52.172;5.378;2022-12-20T11:54:09;6.20;;;4.83;;
7957;SDS011;4024;52.172;5.378;2022-12-20T11:57:00;6.17;;;4.60;;
7957;SDS011;4024;52.172;5.378;2022-12-20T11:59:47;5.23;;;4.70;;
7957;SDS011;4024;52.172;5.378;2022-12-20T12:02:27;8.37;;;4.80;;
7957;SDS011;4024;52.172;5.378;2022-12-20T12:05:22;6.47;;;5.10;;
7957;SDS011;4024;52.172;5.378;2022-12-20T12:08:06;7.57;;;5.20;;
7957;SDS011;4024;52.172;5.378;2022-12-20T12:10:39;6.23;;;4.93;;
7957;SDS011;4024;52.172;5.378;2022-12-20T12:15:56;5.80;;;5.10;;
7957;SDS011;4024;52.172;5.378;2022-12-20T12:18:24;5.37;;;4.87;;
7957;SDS011;4024;52.172;5.378;2022-12-20T12:26:27;6.33;;;5.10;;
7957;SDS011;4024;52.172;5.378;2022-12-20T12:29:20;6.17;;;5.57;;
7957;SDS011;4024;52.172;5.378;2022-12-20T12:31:55;6.23;;;5.63;;
7957;SDS011;4024;52.172;5.378;2022-12-20T12:34:27;6.80;;;5.73;;
7957;SDS011;4024;52.172;5.378;2022-12-20T12:45:16;7.20;;;6.20;;
7957;SDS011;4024;52.172;5.378;2022-12-20T12:47:52;8.10;;;5.23;;
7957;SDS011;4024;52.172;5.378;2022-12-20T12:50:28;6.17;;;5.57;;
7957;SDS011;4024;52.172;5.378;2022-12-20T12:53:06;6.33;;;5.47;;
7957;SDS011;4024;52.172;5.378;2022-12-20T12:55:45;6.10;;;5.57;;
7957;SDS011;4024;52.172;5.378;2022-12-20T13:01:01;6.63;;;5.93;;
7957;SDS011;4024;52.172;5.378;2022-12-20T13:08:48;5.83;;;5.23;;
7957;SDS011;4024;52.172;5.378;2022-12-20T13:11:34;6.60;;;5.90;;
7957;SDS011;4024;52.172;5.378;2022-12-20T13:16:53;6.93;;;5.80;;
7957;SDS011;4024;52.172;5.378;2022-12-20T13:19:39;6.97;;;6.23;;
7957;SDS011;4024;52.172;5.378;2022-12-20T13:27:30;6.50;;;5.87;;
7957;SDS011;4024;52.172;5.378;2022-12-20T13:37:55;5.50;;;5.10;;
7957;SDS011;4024;52.172;5.378;2022-12-20T13:42:56;5.70;;;5.07;;
7957;SDS011;4024;52.172;5.378;2022-12-20T13:45:26;6.17;;;5.13;;
7957;SDS011;4024;52.172;5.378;2022-12-20T13:47:56;6.03;;;5.00;;
7957;SDS011;4024;52.172;5.378;2022-12-20T13:50:37;5.63;;;5.10;;
7957;SDS011;4024;52.172;5.378;2022-12-20T13:53:04;5.00;;;4.60;;
7957;SDS011;4024;52.172;5.378;2022-12-20T13:55:33;5.50;;;5.00;;
7957;SDS011;4024;52.172;5.378;2022-12-20T13:58:09;5.57;;;5.07;;
7957;SDS011;4024;52.172;5.378;2022-12-20T14:00:37;5.97;;;5.43;;
7957;SDS011;4024;52.172;5.378;2022-12-20T14:03:04;5.83;;;4.93;;
7957;SDS011;4024;52.172;5.378;2022-12-20T14:05:38;5.63;;;5.13;;
7957;SDS011;4024;52.172;5.378;2022-12-20T14:08:08;6.00;;;5.50;;
7957;SDS011;4024;52.172;5.378;2022-12-20T14:10:42;5.37;;;4.87;;
7957;SDS011;4024;52.172;5.378;2022-12-20T14:13:41;5.90;;;5.40;;
7957;SDS011;4024;52.172;5.378;2022-12-20T14:16:16;6.00;;;5.40;;
7957;SDS011;4024;52.172;5.378;2022-12-20T14:18:49;5.70;;;5.30;;
7957;SDS011;4024;52.172;5.378;2022-12-20T14:21:23;5.83;;;5.33;;
7957;SDS011;4024;52.172;5.378;2022-12-20T14:23:51;6.13;;;5.53;;
7957;SDS011;4024;52.172;5.378;2022-12-20T14:26:21;5.73;;;5.23;;
7957;SDS011;4024;52.172;5.378;2022-12-20T14:28:50;6.07;;;5.57;;
7957;SDS011;4024;52.172;5.378;2022-12-20T14:34:10;6.43;;;5.83;;
7957;SDS011;4024;52.172;5.378;2022-12-20T14:36:41;6.60;;;6.00;;
7957;SDS011;4024;52.172;5.378;2022-12-20T14:39:31;6.83;;;5.67;;
7957;SDS011;4024;52.172;5.378;2022-12-20T14:44:24;6.17;;;5.67;;
7957;SDS011;4024;52.172;5.378;2022-12-20T14:46:52;6.33;;;5.83;;
7957;SDS011;4024;52.172;5.378;2022-12-20T14:51:51;6.83;;;6.23;;
7957;SDS011;4024;52.172;5.378;2022-12-20T14:54:27;6.93;;;6.33;;
7957;SDS011;4024;52.172;5.378;2022-12-20T14:56:53;7.13;;;6.47;;
7957;SDS011;4024;52.172;5.378;2022-12-20T14:59:24;6.93;;;6.33;;
7957;SDS011;4024;52.172;5.378;2022-12-20T15:01:52;7.20;;;6.37;;
7957;SDS011;4024;52.172;5.378;2022-12-20T15:04:31;6.33;;;5.77;;
7957;SDS011;4024;52.172;5.378;2022-12-20T15:06:59;7.53;;;6.73;;
7957;SDS011;4024;52.172;5.378;2022-12-20T15:09:26;6.17;;;5.67;;
7957;SDS011;4024;52.172;5.378;2022-12-20T15:11:52;7.70;;;7.07;;
7957;SDS011;4024;52.172;5.378;2022-12-20T15:17:03;8.10;;;7.33;;
7957;SDS011;4024;52.172;5.378;2022-12-20T15:19:34;8.47;;;7.67;;
7957;SDS011;4024;52.172;5.378;2022-12-20T15:22:00;8.50;;;7.70;;
7957;SDS011;4024;52.172;5.378;2022-12-20T15:24:27;8.57;;;7.87;;
7957;SDS011;4024;52.172;5.378;2022-12-20T15:26:53;8.80;;;8.10;;
7957;SDS011;4024;52.172;5.378;2022-12-20T15:31:50;9.33;;;8.37;;
7957;SDS011;4024;52.172;5.378;2022-12-20T15:34:28;9.53;;;8.53;;
7957;SDS011;4024;52.172;5.378;2022-12-20T15:36:57;9.17;;;8.37;;
7957;SDS011;4024;52.172;5.378;2022-12-20T15:39:24;9.07;;;8.20;;
7957;SDS011;4024;52.172;5.378;2022-12-20T15:41:51;9.00;;;8.20;;
7957;SDS011;4024;52.172;5.378;2022-12-20T15:46:50;9.77;;;8.97;;
7957;SDS011;4024;52.172;5.378;2022-12-20T15:49:17;9.80;;;9.00;;
7957;SDS011;4024;52.172;5.378;2022-12-20T15:51:43;10.53;;;9.37;;
7957;SDS011;4024;52.172;5.378;2022-12-20T15:54:18;10.93;;;9.40;;
7957;SDS011;4024;52.172;5.378;2022-12-20T15:56:56;10.53;;;9.63;;
7957;SDS011;4024;52.172;5.378;2022-12-20T15:59:23;11.20;;;9.93;;
7957;SDS011;4024;52.172;5.378;2022-12-20T16:01:49;11.07;;;10.00;;
7957;SDS011;4024;52.172;5.378;2022-12-20T16:04:16;10.50;;;9.47;;
7957;SDS011;4024;52.172;5.378;2022-12-20T16:06:44;11.67;;;10.60;;
7957;SDS011;4024;52.172;5.378;2022-12-20T16:09:11;11.77;;;10.33;;
7957;SDS011;4024;52.172;5.378;2022-12-20T16:11:37;11.50;;;10.50;;
7957;SDS011;4024;52.172;5.378;2022-12-20T16:14:03;12.50;;;11.40;;
7957;SDS011;4024;52.172;5.378;2022-12-20T16:16:30;12.37;;;11.03;;
7957;SDS011;4024;52.172;5.378;2022-12-20T16:18:57;13.17;;;11.87;;
7957;SDS011;4024;52.172;5.378;2022-12-20T16:21:24;12.70;;;11.50;;
7957;SDS011;4024;52.172;5.378;2022-12-20T16:23:52;12.67;;;11.53;;
7957;SDS011;4024;52.172;5.378;2022-12-20T16:26:20;12.83;;;11.70;;
7957;SDS011;4024;52.172;5.378;2022-12-20T16:28:47;11.57;;;10.57;;
7957;SDS011;4024;52.172;5.378;2022-12-20T16:33:50;12.73;;;11.53;;
7957;SDS011;4024;52.172;5.378;2022-12-20T16:36:17;12.80;;;11.70;;
7957;SDS011;4024;52.172;5.378;2022-12-20T16:38:42;13.47;;;12.37;;
7957;SDS011;4024;52.172;5.378;2022-12-20T16:41:10;13.57;;;12.37;;
7957;SDS011;4024;52.172;5.378;2022-12-20T16:43:37;12.83;;;11.63;;
7957;SDS011;4024;52.172;5.378;2022-12-20T16:46:03;12.07;;;10.97;;
7957;SDS011;4024;52.172;5.378;2022-12-20T16:48:29;14.40;;;12.13;;
7957;SDS011;4024;52.172;5.378;2022-12-20T16:50:55;12.47;;;11.37;;
7957;SDS011;4024;52.172;5.378;2022-12-20T16:53:21;11.60;;;10.50;;
7957;SDS011;4024;52.172;5.378;2022-12-20T16:55:47;11.53;;;10.53;;
7957;SDS011;4024;52.172;5.378;2022-12-20T16:58:12;11.90;;;10.90;;
7957;SDS011;4024;52.172;5.378;2022-12-20T17:00:38;11.20;;;10.10;;
7957;SDS011;4024;52.172;5.378;2022-12-20T17:03:04;12.10;;;11.00;;
7957;SDS011;4024;52.172;5.378;2022-12-20T17:05:32;10.57;;;9.67;;
7957;SDS011;4024;52.172;5.378;2022-12-20T17:08:00;11.10;;;10.13;;
7957;SDS011;4024;52.172;5.378;2022-12-20T17:10:26;10.40;;;9.50;;
7957;SDS011;4024;52.172;5.378;2022-12-20T17:12:54;10.33;;;9.33;;
7957;SDS011;4024;52.172;5.378;2022-12-20T17:15:25;11.23;;;10.27;;
7957;SDS011;4024;52.172;5.378;2022-12-20T17:17:53;10.47;;;9.57;;